createdAt,value
2022-08-25T00:01:51.458Z,3.72
2022-08-25T00:04:20.198Z,3.58
2022-08-25T00:06:48.808Z,3.10
2022-08-25T00:09:25.829Z,3.42
2022-08-25T00:11:53.614Z,3.63
2022-08-25T00:14:28.998Z,3.58
2022-08-25T00:16:56.257Z,3.88
2022-08-25T00:19:31.608Z,3.60
2022-08-25T00:21:59.406Z,3.95
2022-08-25T00:24:26.953Z,3.72
2022-08-25T00:26:57.523Z,3.78
2022-08-25T00:29:26.995Z,3.80
2022-08-25T00:31:55.565Z,3.60
2022-08-25T00:34:29.293Z,3.72
2022-08-25T00:36:56.514Z,3.80
2022-08-25T00:39:25.514Z,4.00
2022-08-25T00:41:57.730Z,3.90
2022-08-25T00:44:29.583Z,4.40
2022-08-25T00:47:00.953Z,3.85
2022-08-25T00:49:37.222Z,4.20
2022-08-25T00:52:18.313Z,4.22
2022-08-25T00:54:54.749Z,4.22
2022-08-25T00:57:34.335Z,4.30
2022-08-25T01:00:11.908Z,4.00
2022-08-25T01:02:39.510Z,4.35
2022-08-25T01:05:07.653Z,4.60
2022-08-25T01:07:35.195Z,4.72
2022-08-25T01:10:04.130Z,4.57
2022-08-25T01:12:31.004Z,4.55
2022-08-25T01:14:58.770Z,3.92
2022-08-25T01:17:28.113Z,4.10
2022-08-25T01:19:55.797Z,4.30
2022-08-25T01:22:22.932Z,4.82
2022-08-25T01:25:01.895Z,4.38
2022-08-25T01:27:28.757Z,4.70
2022-08-25T01:29:57.885Z,4.70
2022-08-25T01:32:24.864Z,4.70
2022-08-25T01:34:51.995Z,4.40
2022-08-25T01:37:19.253Z,4.88
2022-08-25T01:39:46.520Z,4.82
2022-08-25T01:43:03.098Z,5.00
2022-08-25T01:45:30.303Z,4.50
2022-08-25T01:47:57.119Z,4.95
2022-08-25T01:50:24.647Z,5.22
2022-08-25T01:53:24.322Z,5.50
2022-08-25T01:55:55.864Z,4.65
2022-08-25T01:58:30.134Z,4.88
2022-08-25T02:01:01.615Z,5.30
2022-08-25T02:03:30.069Z,5.53
2022-08-25T02:06:01.272Z,5.07
2022-08-25T02:08:31.534Z,5.20
2022-08-25T02:10:58.478Z,5.38
2022-08-25T02:13:26.874Z,5.40
2022-08-25T02:16:01.291Z,5.28
2022-08-25T02:18:28.888Z,5.47
2022-08-25T02:20:55.722Z,5.28
2022-08-25T02:23:22.584Z,5.32
2022-08-25T02:25:49.437Z,5.10
2022-08-25T02:28:16.710Z,5.60
2022-08-25T02:30:44.102Z,5.47
2022-08-25T02:33:11.749Z,5.40
2022-08-25T02:35:39.368Z,5.72
2022-08-25T02:38:07.237Z,5.22
2022-08-25T02:40:34.570Z,5.80
2022-08-25T02:43:02.197Z,5.15
2022-08-25T02:45:29.735Z,5.10
2022-08-25T02:47:56.717Z,5.50
2022-08-25T02:50:23.825Z,5.45
2022-08-25T02:52:51.937Z,5.80
2022-08-25T02:55:19.283Z,5.18
2022-08-25T02:57:46.319Z,5.85
2022-08-25T03:00:16.718Z,5.82
2022-08-25T03:02:44.816Z,5.50
2022-08-25T03:05:14.163Z,5.72
2022-08-25T03:07:41.987Z,5.93
2022-08-25T03:10:18.812Z,5.57
2022-08-25T03:12:47.623Z,5.75
2022-08-25T03:15:17.104Z,5.70
2022-08-25T03:17:46.578Z,5.95
2022-08-25T03:20:14.065Z,6.60
2022-08-25T03:22:41.471Z,5.65
2022-08-25T03:25:28.354Z,5.65
2022-08-25T03:27:55.914Z,5.93
2022-08-25T03:30:23.286Z,5.55
2022-08-25T03:32:50.879Z,5.97
2022-08-25T03:35:18.705Z,6.25
2022-08-25T03:37:45.816Z,6.43
2022-08-25T03:40:16.615Z,6.07
2022-08-25T03:42:47.102Z,6.43
2022-08-25T03:45:17.727Z,5.97
2022-08-25T03:47:48.996Z,6.30
2022-08-25T03:50:19.191Z,6.00
2022-08-25T03:52:51.268Z,6.32
2022-08-25T03:55:18.100Z,6.10
2022-08-25T03:57:44.952Z,6.40
2022-08-25T04:00:12.582Z,6.50
2022-08-25T04:02:40.528Z,6.32
2022-08-25T04:05:09.250Z,6.00
2022-08-25T04:07:36.111Z,5.70
2022-08-25T04:10:05.295Z,6.38
2022-08-25T04:12:32.197Z,6.75
2022-08-25T04:14:59.357Z,7.05
2022-08-25T04:17:26.397Z,6.43
2022-08-25T04:19:53.398Z,6.70
2022-08-25T04:22:20.208Z,6.53
2022-08-25T04:24:47.185Z,6.85
2022-08-25T04:27:15.396Z,6.50
2022-08-25T04:29:42.854Z,6.43
2022-08-25T04:32:09.809Z,6.55
2022-08-25T04:34:36.744Z,7.55
2022-08-25T04:37:06.215Z,7.13
2022-08-25T04:39:34.033Z,6.53
2022-08-25T04:42:01.471Z,7.43
2022-08-25T04:44:30.485Z,7.35
2022-08-25T04:46:58.083Z,7.55
2022-08-25T04:49:25.071Z,6.82
2022-08-25T04:51:51.930Z,6.95
2022-08-25T04:54:22.136Z,7.63
2022-08-25T04:56:56.558Z,7.60
2022-08-25T04:59:29.529Z,7.63
2022-08-25T05:02:02.507Z,7.93
2022-08-25T05:04:30.705Z,8.15
2022-08-25T05:06:58.523Z,7.57
2022-08-25T05:09:26.632Z,7.20
2022-08-25T05:11:54.779Z,7.50
2022-08-25T05:14:26.334Z,8.05
2022-08-25T05:16:54.851Z,7.45
2022-08-25T05:19:23.931Z,6.45
2022-08-25T05:21:51.640Z,6.60
2022-08-25T05:24:19.126Z,6.10
2022-08-25T05:26:46.178Z,6.43
2022-08-25T05:29:14.372Z,6.25
2022-08-25T05:31:47.018Z,6.25
2022-08-25T05:34:15.554Z,6.20
2022-08-25T05:36:43.431Z,6.35
2022-08-25T05:39:11.171Z,5.78
2022-08-25T05:41:38.524Z,5.95
2022-08-25T05:44:05.434Z,5.78
2022-08-25T05:46:32.973Z,6.90
2022-08-25T05:48:59.795Z,6.15
2022-08-25T05:51:26.782Z,6.32
2022-08-25T05:53:54.205Z,6.20
2022-08-25T05:56:21.545Z,6.47
2022-08-25T05:58:49.008Z,6.13
2022-08-25T06:01:48.518Z,6.20
2022-08-25T06:04:19.417Z,6.00
2022-08-25T06:06:46.853Z,6.00
2022-08-25T06:09:13.675Z,6.05
2022-08-25T06:11:41.463Z,6.30
2022-08-25T06:14:10.231Z,6.25
2022-08-25T06:16:39.047Z,6.20
2022-08-25T06:19:08.536Z,6.00
2022-08-25T06:21:39.029Z,6.25
2022-08-25T06:24:06.834Z,5.70
2022-08-25T06:26:34.903Z,5.68
2022-08-25T06:29:01.767Z,5.65
2022-08-25T06:31:28.713Z,5.95
2022-08-25T06:33:55.841Z,5.85
2022-08-25T06:36:22.645Z,5.68
2022-08-25T06:38:49.539Z,5.63
2022-08-25T06:41:16.660Z,5.68
2022-08-25T06:43:48.904Z,5.75
2022-08-25T06:46:21.534Z,6.15
2022-08-25T06:48:49.796Z,5.60
2022-08-25T06:51:19.477Z,5.60
2022-08-25T06:53:49.045Z,5.75
2022-08-25T06:56:21.720Z,5.90
2022-08-25T06:58:51.003Z,5.95
2022-08-25T07:01:26.768Z,6.10
2022-08-25T07:04:00.337Z,6.38
2022-08-25T07:06:35.339Z,6.30
2022-08-25T07:09:08.162Z,6.35
2022-08-25T07:11:35.440Z,6.43
2022-08-25T07:14:05.531Z,6.25
2022-08-25T07:16:33.730Z,5.93
2022-08-25T07:19:02.125Z,6.35
2022-08-25T07:21:33.597Z,6.45
2022-08-25T07:24:07.014Z,6.30
2022-08-25T07:26:38.309Z,6.03
2022-08-25T07:29:26.559Z,6.20
2022-08-25T07:32:00.982Z,6.80
2022-08-25T07:35:06.458Z,6.38
2022-08-25T07:37:47.752Z,5.95
2022-08-25T07:40:23.673Z,6.28
2022-08-25T07:42:54.185Z,6.10
2022-08-25T07:45:30.114Z,6.35
2022-08-25T07:48:09.334Z,6.40
2022-08-25T07:50:42.291Z,5.40
2022-08-25T07:53:10.325Z,6.18
2022-08-25T07:55:38.205Z,6.45
2022-08-25T07:58:08.255Z,6.07
2022-08-25T08:00:37.727Z,6.05
2022-08-25T08:03:10.036Z,5.82
2022-08-25T08:05:41.435Z,6.28
2022-08-25T08:08:08.637Z,5.85
2022-08-25T08:11:02.728Z,6.63
2022-08-25T08:13:26.757Z,6.25
2022-08-25T08:15:53.721Z,6.43
2022-08-25T08:18:20.589Z,6.20
2022-08-25T08:20:49.279Z,5.97
2022-08-25T08:23:17.349Z,6.15
2022-08-25T08:25:44.359Z,6.03
2022-08-25T08:28:11.321Z,5.95
2022-08-25T08:30:38.300Z,5.95
2022-08-25T08:33:10.227Z,5.45
2022-08-25T08:35:41.051Z,5.63
2022-08-25T08:38:14.470Z,5.63
2022-08-25T08:41:22.903Z,5.60
2022-08-25T08:44:03.155Z,5.25
2022-08-25T08:46:59.340Z,5.68
2022-08-25T08:49:57.424Z,5.63
2022-08-25T08:52:48.826Z,5.90
2022-08-25T08:55:36.954Z,5.47
2022-08-25T08:58:27.255Z,5.57
2022-08-25T09:00:58.312Z,6.13
2022-08-25T09:03:43.149Z,5.10
2022-08-25T09:06:24.516Z,5.32
2022-08-25T09:08:55.551Z,5.38
2022-08-25T09:11:36.574Z,5.43
2022-08-25T09:14:54.935Z,4.85
2022-08-25T09:17:54.416Z,5.00
2022-08-25T09:21:00.193Z,5.45
2022-08-25T09:23:52.119Z,4.75
2022-08-25T09:26:47.920Z,4.00
2022-08-25T09:29:23.352Z,4.32
2022-08-25T09:31:57.496Z,5.22
2022-08-25T09:34:33.808Z,4.43
2022-08-25T09:37:01.297Z,4.47
2022-08-25T09:39:28.263Z,4.30
2022-08-25T09:42:00.146Z,4.30
2022-08-25T09:44:48.459Z,4.28
2022-08-25T09:47:18.288Z,4.28
2022-08-25T09:49:56.273Z,4.40
2022-08-25T09:52:31.753Z,3.58
2022-08-25T09:55:32.420Z,2.90
2022-08-25T09:58:00.331Z,3.30
2022-08-25T10:00:34.609Z,3.17
2022-08-25T10:03:11.855Z,3.38
2022-08-25T10:06:07.650Z,3.92
2022-08-25T10:08:57.335Z,3.20
2022-08-25T10:11:48.302Z,3.38
2022-08-25T10:14:36.396Z,3.38
2022-08-25T10:17:27.782Z,3.30
2022-08-25T10:20:11.571Z,3.60
2022-08-25T10:22:41.160Z,3.50
2022-08-25T10:25:15.371Z,3.67
2022-08-25T10:28:22.371Z,3.33
2022-08-25T10:31:05.740Z,4.00
2022-08-25T10:34:20.542Z,3.50
2022-08-25T10:37:05.918Z,3.65
2022-08-25T10:39:46.118Z,4.15
2022-08-25T10:42:51.035Z,4.50
2022-08-25T10:45:45.703Z,4.47
2022-08-25T10:48:32.311Z,4.45
2022-08-25T10:51:50.923Z,4.50
2022-08-25T10:54:58.294Z,4.40
2022-08-25T10:57:45.478Z,4.15
2022-08-25T11:00:33.340Z,4.85
2022-08-25T11:03:25.430Z,4.22
2022-08-25T11:06:02.976Z,4.20
2022-08-25T11:08:40.845Z,4.95
2022-08-25T11:11:25.988Z,4.25
2022-08-25T11:14:11.290Z,4.05
2022-08-25T11:17:06.617Z,4.15
2022-08-25T11:19:44.051Z,4.07
2022-08-25T11:22:39.708Z,4.38
2022-08-25T11:25:34.971Z,3.92
2022-08-25T11:28:23.335Z,4.05
2022-08-25T11:30:56.432Z,4.15
2022-08-25T11:33:26.614Z,4.13
2022-08-25T11:36:03.289Z,4.07
2022-08-25T11:38:39.565Z,4.32
2022-08-25T11:42:08.021Z,4.28
2022-08-25T11:45:38.435Z,4.07
2022-08-25T11:49:04.546Z,4.40
2022-08-25T11:51:42.727Z,4.00
2022-08-25T11:54:34.290Z,4.43
2022-08-25T11:57:08.788Z,4.20
2022-08-25T11:59:53.678Z,4.22
2022-08-25T12:02:51.189Z,4.03
2022-08-25T12:05:22.013Z,4.35
2022-08-25T12:08:18.129Z,4.70
2022-08-25T12:10:57.037Z,4.50
2022-08-25T12:13:50.811Z,4.75
2022-08-25T12:16:36.175Z,4.28
2022-08-25T12:19:31.683Z,5.00
2022-08-25T12:22:24.196Z,4.93
2022-08-25T12:24:59.124Z,5.03
2022-08-25T12:27:48.860Z,4.82
2022-08-25T12:30:30.022Z,4.75
2022-08-25T12:33:05.917Z,4.25
2022-08-25T12:35:55.131Z,4.93
2022-08-25T12:38:51.819Z,4.65
2022-08-25T12:41:31.048Z,4.72
2022-08-25T12:44:39.560Z,4.75
2022-08-25T12:47:23.453Z,4.40
2022-08-25T12:49:50.895Z,4.25
2022-08-25T12:52:27.882Z,4.60
2022-08-25T12:55:03.147Z,4.35
2022-08-25T12:57:43.425Z,4.53
2022-08-25T13:03:12.529Z,4.18
2022-08-25T13:06:23.313Z,3.97
2022-08-25T13:09:36.880Z,4.55
2022-08-25T13:12:23.855Z,4.30
2022-08-25T13:15:00.145Z,3.88
2022-08-25T13:17:34.138Z,3.97
2022-08-25T13:20:19.091Z,3.85
2022-08-25T13:22:57.753Z,4.15
2022-08-25T13:25:32.359Z,3.88
2022-08-25T13:28:06.404Z,4.80
2022-08-25T13:30:39.136Z,4.70
2022-08-25T13:33:22.236Z,4.50
2022-08-25T13:36:12.137Z,4.57
2022-08-25T13:38:39.499Z,4.35
2022-08-25T13:41:09.853Z,5.05
2022-08-25T13:43:39.556Z,4.20
2022-08-25T13:46:07.997Z,4.75
2022-08-25T13:48:49.320Z,4.80
2022-08-25T13:51:19.583Z,4.40
2022-08-25T13:54:00.143Z,4.38
2022-08-25T13:56:42.178Z,4.65
2022-08-25T13:59:35.229Z,4.53
2022-08-25T14:02:15.267Z,4.80
2022-08-25T14:04:51.235Z,4.65
2022-08-25T14:07:22.211Z,4.47
2022-08-25T14:09:57.658Z,4.30
2022-08-25T14:12:46.274Z,5.00
2022-08-25T14:15:20.079Z,4.78
2022-08-25T14:18:00.665Z,4.53
2022-08-25T14:20:31.524Z,4.60
2022-08-25T14:23:05.413Z,4.15
2022-08-25T14:25:36.905Z,5.15
2022-08-25T14:28:14.453Z,4.68
2022-08-25T14:30:49.330Z,4.20
2022-08-25T14:33:23.976Z,4.57
2022-08-25T14:35:54.535Z,4.43
2022-08-25T14:38:26.211Z,4.63
2022-08-25T14:40:54.452Z,4.70
2022-08-25T14:43:24.094Z,4.53
2022-08-25T14:46:06.255Z,4.43
2022-08-25T14:48:45.017Z,4.20
2022-08-25T14:51:14.382Z,4.30
2022-08-25T14:53:44.050Z,4.20
2022-08-25T14:56:11.415Z,4.53
2022-08-25T14:58:50.938Z,4.80
2022-08-25T15:01:28.861Z,4.53
2022-08-25T15:04:15.770Z,3.95
2022-08-25T15:06:45.485Z,5.43
2022-08-25T15:09:16.703Z,4.40
2022-08-25T15:11:50.622Z,4.32
2022-08-25T15:14:28.888Z,4.88
2022-08-25T15:17:01.578Z,4.53
2022-08-25T15:19:29.038Z,5.20
2022-08-25T15:21:58.137Z,5.13
2022-08-25T15:24:28.188Z,5.30
2022-08-25T15:26:59.514Z,5.00
2022-08-25T15:29:30.037Z,5.20
2022-08-25T15:31:59.703Z,5.30
2022-08-25T15:34:27.011Z,5.20
2022-08-25T15:36:56.342Z,5.82
2022-08-25T15:39:23.246Z,5.30
2022-08-25T15:41:52.458Z,5.45
2022-08-25T15:44:20.488Z,4.72
2022-08-25T15:46:49.782Z,5.03
2022-08-25T15:49:20.718Z,5.65
2022-08-25T15:51:52.332Z,4.63
2022-08-25T15:54:20.593Z,5.85
2022-08-25T15:56:47.756Z,5.40
2022-08-25T15:59:15.535Z,5.30
2022-08-25T16:01:44.379Z,5.80
2022-08-25T16:04:14.418Z,5.38
2022-08-25T16:06:41.697Z,5.40
2022-08-25T16:09:08.726Z,5.70
2022-08-25T16:11:35.745Z,5.47
2022-08-25T16:14:06.055Z,5.82
2022-08-25T16:16:34.261Z,5.70
2022-08-25T16:19:02.320Z,5.75
2022-08-25T16:21:35.071Z,5.40
2022-08-25T16:24:07.726Z,5.28
2022-08-25T16:26:37.647Z,5.60
2022-08-25T16:29:15.601Z,5.50
2022-08-25T16:31:44.473Z,5.60
2022-08-25T16:34:12.030Z,5.38
2022-08-25T16:36:39.945Z,5.25
2022-08-25T16:39:09.941Z,5.65
2022-08-25T16:41:37.342Z,5.10
2022-08-25T16:44:07.730Z,5.68
2022-08-25T16:46:38.829Z,5.22
2022-08-25T16:49:08.802Z,5.60
2022-08-25T16:51:38.589Z,5.50
2022-08-25T16:54:30.317Z,5.15
2022-08-25T16:56:57.648Z,5.25
2022-08-25T16:59:25.459Z,5.25
2022-08-25T17:01:53.227Z,5.18
2022-08-25T17:04:21.096Z,5.45
2022-08-25T17:06:56.440Z,5.35
2022-08-25T17:09:24.048Z,5.35
2022-08-25T17:11:54.383Z,5.40
2022-08-25T17:14:22.198Z,5.55
2022-08-25T17:16:51.094Z,5.18
2022-08-25T17:19:18.746Z,5.50
2022-08-25T17:21:46.417Z,5.40
2022-08-25T17:24:14.207Z,5.60
2022-08-25T17:26:43.169Z,5.15
2022-08-25T17:29:11.495Z,5.90
2022-08-25T17:31:39.737Z,5.97
2022-08-25T17:34:10.517Z,5.47
2022-08-25T17:36:39.902Z,5.18
2022-08-25T17:39:10.955Z,5.30
2022-08-25T17:41:38.030Z,5.43
2022-08-25T17:44:07.902Z,5.03
2022-08-25T17:46:35.309Z,5.50
2022-08-25T17:49:02.346Z,5.40
2022-08-25T17:51:31.722Z,5.22
2022-08-25T17:53:58.782Z,5.32
2022-08-25T17:56:27.618Z,5.20
2022-08-25T17:58:56.473Z,5.25
2022-08-25T18:01:32.447Z,5.35
2022-08-25T18:04:00.072Z,5.50
2022-08-25T18:06:31.831Z,5.43
2022-08-25T18:09:01.518Z,5.35
2022-08-25T18:11:30.198Z,5.72
2022-08-25T18:13:58.062Z,5.47
2022-08-25T18:16:26.935Z,5.75
2022-08-25T18:18:55.304Z,5.75
2022-08-25T18:21:25.201Z,5.70
2022-08-25T18:23:57.627Z,5.38
2022-08-25T18:26:26.156Z,5.63
2022-08-25T18:28:52.976Z,5.70
2022-08-25T18:31:20.089Z,5.30
2022-08-25T18:33:47.146Z,5.75
2022-08-25T18:36:18.240Z,5.30
2022-08-25T18:39:04.342Z,5.38
2022-08-25T18:41:40.199Z,5.57
2022-08-25T18:44:08.138Z,5.65
2022-08-25T18:46:37.524Z,5.40
2022-08-25T18:49:04.580Z,5.78
2022-08-25T18:51:32.925Z,5.13
2022-08-25T18:54:01.284Z,5.82
2022-08-25T18:56:29.679Z,5.90
2022-08-25T18:58:58.236Z,6.05
2022-08-25T19:01:25.457Z,5.60
2022-08-25T19:03:52.759Z,6.15
2022-08-25T19:06:20.735Z,6.30
2022-08-25T19:08:48.760Z,6.30
2022-08-25T19:11:17.893Z,5.80
2022-08-25T19:13:50.466Z,6.45
2022-08-25T19:16:32.862Z,6.30
2022-08-25T19:19:02.529Z,5.97
2022-08-25T19:21:31.182Z,6.40
2022-08-25T19:23:58.136Z,6.22
2022-08-25T19:26:25.913Z,6.15
2022-08-25T19:28:53.783Z,6.50
2022-08-25T19:31:24.117Z,6.07
2022-08-25T19:33:54.784Z,6.50
2022-08-25T19:36:28.140Z,6.10
2022-08-25T19:38:58.640Z,6.78
2022-08-25T19:41:27.477Z,5.90
2022-08-25T19:43:57.454Z,6.35
2022-08-25T19:46:35.749Z,6.15
2022-08-25T19:49:17.338Z,6.32
2022-08-25T19:51:50.523Z,6.57
2022-08-25T19:54:25.769Z,7.00
2022-08-25T19:56:55.604Z,6.65
2022-08-25T19:59:40.532Z,6.68
2022-08-25T20:02:20.587Z,6.93
2022-08-25T20:04:59.508Z,6.35
2022-08-25T20:07:31.785Z,6.93
2022-08-25T20:10:00.069Z,6.95
2022-08-25T20:12:29.281Z,6.97
2022-08-25T20:14:56.770Z,6.75
2022-08-25T20:17:26.135Z,6.72
2022-08-25T20:20:01.882Z,6.68
2022-08-25T20:22:33.222Z,6.72
2022-08-25T20:25:13.097Z,7.57
2022-08-25T20:27:46.243Z,6.95
2022-08-25T20:30:25.884Z,6.80
2022-08-25T20:32:55.710Z,7.10
2022-08-25T20:35:26.582Z,6.80
2022-08-25T20:37:54.942Z,7.10
2022-08-25T20:40:25.431Z,6.95
2022-08-25T20:42:55.624Z,7.55
2022-08-25T20:45:22.822Z,6.43
2022-08-25T20:47:50.478Z,6.55
2022-08-25T20:50:18.790Z,6.78
2022-08-25T20:52:46.088Z,6.43
2022-08-25T20:55:15.502Z,7.28
2022-08-25T20:57:46.255Z,7.10
2022-08-25T21:00:14.766Z,6.85
2022-08-25T21:02:42.739Z,6.80
2022-08-25T21:05:09.666Z,7.10
2022-08-25T21:07:36.663Z,7.18
2022-08-25T21:10:10.734Z,7.15
2022-08-25T21:12:42.303Z,6.85
2022-08-25T21:15:10.517Z,7.25
2022-08-25T21:17:37.699Z,6.53
2022-08-25T21:20:07.848Z,7.70
2022-08-25T21:22:37.006Z,7.43
2022-08-25T21:25:06.978Z,7.32
2022-08-25T21:27:33.869Z,7.03
2022-08-25T21:30:00.766Z,8.13
2022-08-25T21:32:27.645Z,7.45
2022-08-25T21:34:56.370Z,7.25
2022-08-25T21:37:24.575Z,7.35
2022-08-25T21:39:52.400Z,7.43
2022-08-25T21:42:23.907Z,7.40
2022-08-25T21:44:52.654Z,7.32
2022-08-25T21:47:21.648Z,8.15
2022-08-25T21:49:50.775Z,8.10
2022-08-25T21:52:18.297Z,7.90
2022-08-25T21:54:45.768Z,8.77
2022-08-25T21:57:12.720Z,8.50
2022-08-25T21:59:43.452Z,7.35
2022-08-25T22:02:13.904Z,7.53
2022-08-25T22:04:42.092Z,7.43
2022-08-25T22:07:10.839Z,8.10
2022-08-25T22:09:39.011Z,8.20
2022-08-25T22:12:07.447Z,7.72
2022-08-25T22:14:36.603Z,7.72
2022-08-25T22:17:04.934Z,8.18
2022-08-25T22:19:33.144Z,8.10
2022-08-25T22:22:00.203Z,7.43
2022-08-25T22:24:28.381Z,8.07
2022-08-25T22:26:56.334Z,7.95
2022-08-25T22:29:25.302Z,8.70
2022-08-25T22:31:59.443Z,8.25
2022-08-25T22:34:34.355Z,8.15
2022-08-25T22:37:04.179Z,8.48
2022-08-25T22:39:34.231Z,9.02
2022-08-25T22:42:02.726Z,8.30
2022-08-25T22:44:30.085Z,8.52
2022-08-25T22:46:56.924Z,8.13
2022-08-25T22:49:24.081Z,8.20
2022-08-25T22:51:51.060Z,8.65
2022-08-25T22:54:20.619Z,8.63
2022-08-25T22:56:47.526Z,8.02
2022-08-25T22:59:15.357Z,8.55
2022-08-25T23:01:45.133Z,8.23
2022-08-25T23:04:14.547Z,8.00
2022-08-25T23:06:41.650Z,8.32
2022-08-25T23:09:10.811Z,8.35
2022-08-25T23:11:38.917Z,8.82
2022-08-25T23:14:10.086Z,7.88
2022-08-25T23:16:41.905Z,8.43
2022-08-25T23:19:13.593Z,8.70
2022-08-25T23:22:00.624Z,7.95
2022-08-25T23:24:29.883Z,9.15
2022-08-25T23:26:59.491Z,8.32
2022-08-25T23:29:28.006Z,8.82
2022-08-25T23:31:55.943Z,8.90
2022-08-25T23:34:24.230Z,8.50
2022-08-25T23:36:52.256Z,8.82
2022-08-25T23:39:21.945Z,8.27
2022-08-25T23:41:49.807Z,8.48
2022-08-25T23:44:18.683Z,7.88
2022-08-25T23:46:47.551Z,8.32
2022-08-25T23:49:18.607Z,8.32
2022-08-25T23:51:49.847Z,8.07
2022-08-25T23:54:21.174Z,8.73
2022-08-25T23:56:51.567Z,8.52
2022-08-25T23:59:24.354Z,9.50
